sensor_id;sensor_type;location;lat;lon;timestamp;P1;durP1;ratioP1;P2;durP2;ratioP2
47053;SDS011;32811;52.382;5.270;2023-05-14T00:00:19;11.48;;;8.38;;
47053;SDS011;32811;52.382;5.270;2023-05-14T00:02:45;13.32;;;7.65;;
47053;SDS011;32811;52.382;5.270;2023-05-14T00:05:15;14.93;;;7.85;;
47053;SDS011;32811;52.382;5.270;2023-05-14T00:07:42;16.42;;;9.10;;
47053;SDS011;32811;52.382;5.270;2023-05-14T00:10:09;10.77;;;7.28;;
47053;SDS011;32811;52.382;5.270;2023-05-14T00:12:39;12.88;;;7.78;;
47053;SDS011;32811;52.382;5.270;2023-05-14T00:15:06;8.90;;;6.78;;
47053;SDS011;32811;52.382;5.270;2023-05-14T00:17:42;14.48;;;7.20;;
47053;SDS011;32811;52.382;5.270;2023-05-14T00:20:09;12.18;;;7.70;;
47053;SDS011;32811;52.382;5.270;2023-05-14T00:22:39;15.68;;;7.80;;
47053;SDS011;32811;52.382;5.270;2023-05-14T00:25:06;9.52;;;7.43;;
47053;SDS011;32811;52.382;5.270;2023-05-14T00:27:37;11.48;;;7.45;;
47053;SDS011;32811;52.382;5.270;2023-05-14T00:30:03;15.55;;;8.52;;
47053;SDS011;32811;52.382;5.270;2023-05-14T00:32:32;13.35;;;7.20;;
47053;SDS011;32811;52.382;5.270;2023-05-14T00:34:59;13.88;;;8.13;;
47053;SDS011;32811;52.382;5.270;2023-05-14T00:37:28;13.63;;;7.90;;
47053;SDS011;32811;52.382;5.270;2023-05-14T00:39:54;11.60;;;8.15;;
47053;SDS011;32811;52.382;5.270;2023-05-14T00:42:21;10.75;;;7.70;;
47053;SDS011;32811;52.382;5.270;2023-05-14T00:44:47;11.02;;;7.95;;
47053;SDS011;32811;52.382;5.270;2023-05-14T00:47:14;12.10;;;8.02;;
47053;SDS011;32811;52.382;5.270;2023-05-14T00:49:41;15.77;;;8.05;;
47053;SDS011;32811;52.382;5.270;2023-05-14T00:52:08;12.45;;;8.13;;
47053;SDS011;32811;52.382;5.270;2023-05-14T00:54:36;9.93;;;7.53;;
47053;SDS011;32811;52.382;5.270;2023-05-14T00:57:03;11.27;;;8.20;;
47053;SDS011;32811;52.382;5.270;2023-05-14T00:59:31;13.70;;;8.95;;
47053;SDS011;32811;52.382;5.270;2023-05-14T01:01:58;14.82;;;9.77;;
47053;SDS011;32811;52.382;5.270;2023-05-14T01:04:25;19.73;;;8.70;;
47053;SDS011;32811;52.382;5.270;2023-05-14T01:10:00;16.23;;;9.80;;
47053;SDS011;32811;52.382;5.270;2023-05-14T01:12:37;13.95;;;7.97;;
47053;SDS011;32811;52.382;5.270;2023-05-14T01:17:51;14.48;;;8.77;;
47053;SDS011;32811;52.382;5.270;2023-05-14T01:20:20;13.85;;;8.70;;
47053;SDS011;32811;52.382;5.270;2023-05-14T01:22:48;11.85;;;8.50;;
47053;SDS011;32811;52.382;5.270;2023-05-14T01:25:15;15.88;;;9.13;;
47053;SDS011;32811;52.382;5.270;2023-05-14T01:30:30;18.27;;;9.35;;
47053;SDS011;32811;52.382;5.270;2023-05-14T01:33:13;11.05;;;9.40;;
47053;SDS011;32811;52.382;5.270;2023-05-14T01:35:46;14.50;;;9.00;;
47053;SDS011;32811;52.382;5.270;2023-05-14T01:38:15;11.63;;;8.88;;
47053;SDS011;32811;52.382;5.270;2023-05-14T01:40:44;12.60;;;9.27;;
47053;SDS011;32811;52.382;5.270;2023-05-14T01:43:11;11.88;;;8.75;;
47053;SDS011;32811;52.382;5.270;2023-05-14T01:45:39;14.60;;;10.18;;
47053;SDS011;32811;52.382;5.270;2023-05-14T01:48:05;11.45;;;9.73;;
47053;SDS011;32811;52.382;5.270;2023-05-14T01:50:32;18.90;;;11.07;;
47053;SDS011;32811;52.382;5.270;2023-05-14T01:52:59;10.00;;;7.65;;
47053;SDS011;32811;52.382;5.270;2023-05-14T01:55:26;14.90;;;8.82;;
47053;SDS011;32811;52.382;5.270;2023-05-14T01:57:52;17.20;;;9.23;;
47053;SDS011;32811;52.382;5.270;2023-05-14T02:00:19;12.70;;;9.65;;
47053;SDS011;32811;52.382;5.270;2023-05-14T02:02:47;11.80;;;9.25;;
47053;SDS011;32811;52.382;5.270;2023-05-14T02:05:14;15.77;;;9.50;;
47053;SDS011;32811;52.382;5.270;2023-05-14T02:07:40;10.38;;;8.27;;
47053;SDS011;32811;52.382;5.270;2023-05-14T02:10:07;14.85;;;10.43;;
47053;SDS011;32811;52.382;5.270;2023-05-14T02:12:34;15.70;;;8.75;;
47053;SDS011;32811;52.382;5.270;2023-05-14T02:15:01;13.00;;;9.27;;
47053;SDS011;32811;52.382;5.270;2023-05-14T02:17:29;12.93;;;8.93;;
47053;SDS011;32811;52.382;5.270;2023-05-14T02:19:55;12.25;;;8.68;;
47053;SDS011;32811;52.382;5.270;2023-05-14T02:22:22;13.43;;;8.07;;
47053;SDS011;32811;52.382;5.270;2023-05-14T02:24:48;12.80;;;8.15;;
47053;SDS011;32811;52.382;5.270;2023-05-14T02:27:16;10.05;;;8.38;;
47053;SDS011;32811;52.382;5.270;2023-05-14T02:29:43;16.05;;;8.52;;
47053;SDS011;32811;52.382;5.270;2023-05-14T02:32:10;10.57;;;8.85;;
47053;SDS011;32811;52.382;5.270;2023-05-14T02:34:36;14.07;;;8.27;;
47053;SDS011;32811;52.382;5.270;2023-05-14T02:37:03;14.43;;;8.15;;
47053;SDS011;32811;52.382;5.270;2023-05-14T02:39:30;13.23;;;8.00;;
47053;SDS011;32811;52.382;5.270;2023-05-14T02:41:57;11.40;;;7.60;;
47053;SDS011;32811;52.382;5.270;2023-05-14T02:44:24;12.68;;;8.77;;
47053;SDS011;32811;52.382;5.270;2023-05-14T02:46:50;10.82;;;7.75;;
47053;SDS011;32811;52.382;5.270;2023-05-14T02:49:17;12.10;;;7.38;;
47053;SDS011;32811;52.382;5.270;2023-05-14T02:51:44;13.45;;;7.15;;
47053;SDS011;32811;52.382;5.270;2023-05-14T02:54:10;9.45;;;7.65;;
47053;SDS011;32811;52.382;5.270;2023-05-14T02:56:37;15.50;;;7.30;;
47053;SDS011;32811;52.382;5.270;2023-05-14T02:59:03;10.43;;;7.45;;
47053;SDS011;32811;52.382;5.270;2023-05-14T03:01:30;11.20;;;6.45;;
47053;SDS011;32811;52.382;5.270;2023-05-14T03:03:57;17.35;;;7.28;;
47053;SDS011;32811;52.382;5.270;2023-05-14T03:06:24;12.95;;;7.53;;
47053;SDS011;32811;52.382;5.270;2023-05-14T03:08:51;9.35;;;6.53;;
47053;SDS011;32811;52.382;5.270;2023-05-14T03:11:17;8.75;;;6.45;;
47053;SDS011;32811;52.382;5.270;2023-05-14T03:13:44;9.23;;;6.88;;
47053;SDS011;32811;52.382;5.270;2023-05-14T03:16:10;8.30;;;6.80;;
47053;SDS011;32811;52.382;5.270;2023-05-14T03:18:37;8.73;;;6.55;;
47053;SDS011;32811;52.382;5.270;2023-05-14T03:21:04;10.90;;;7.20;;
47053;SDS011;32811;52.382;5.270;2023-05-14T03:23:31;9.70;;;6.32;;
47053;SDS011;32811;52.382;5.270;2023-05-14T03:26:00;11.60;;;6.47;;
47053;SDS011;32811;52.382;5.270;2023-05-14T03:28:27;13.48;;;6.47;;
47053;SDS011;32811;52.382;5.270;2023-05-14T03:30:54;7.03;;;5.47;;
47053;SDS011;32811;52.382;5.270;2023-05-14T03:33:23;7.47;;;5.85;;
47053;SDS011;32811;52.382;5.270;2023-05-14T03:35:56;8.73;;;6.75;;
47053;SDS011;32811;52.382;5.270;2023-05-14T03:38:25;13.77;;;6.50;;
47053;SDS011;32811;52.382;5.270;2023-05-14T03:40:59;9.20;;;6.22;;
47053;SDS011;32811;52.382;5.270;2023-05-14T03:43:26;10.10;;;6.55;;
47053;SDS011;32811;52.382;5.270;2023-05-14T03:45:55;16.27;;;7.28;;
47053;SDS011;32811;52.382;5.270;2023-05-14T03:48:22;8.73;;;6.80;;
47053;SDS011;32811;52.382;5.270;2023-05-14T03:50:49;9.98;;;8.07;;
47053;SDS011;32811;52.382;5.270;2023-05-14T03:53:16;15.63;;;7.65;;
47053;SDS011;32811;52.382;5.270;2023-05-14T03:55:43;10.45;;;7.30;;
47053;SDS011;32811;52.382;5.270;2023-05-14T03:58:09;12.95;;;8.30;;
47053;SDS011;32811;52.382;5.270;2023-05-14T04:00:40;10.60;;;6.93;;
47053;SDS011;32811;52.382;5.270;2023-05-14T04:03:07;9.68;;;6.65;;
47053;SDS011;32811;52.382;5.270;2023-05-14T04:05:34;13.93;;;7.70;;
47053;SDS011;32811;52.382;5.270;2023-05-14T04:08:01;9.07;;;7.07;;
47053;SDS011;32811;52.382;5.270;2023-05-14T04:10:27;10.38;;;7.82;;
47053;SDS011;32811;52.382;5.270;2023-05-14T04:12:54;10.07;;;7.07;;
47053;SDS011;32811;52.382;5.270;2023-05-14T04:15:21;17.55;;;7.43;;
47053;SDS011;32811;52.382;5.270;2023-05-14T04:17:48;9.05;;;7.10;;
47053;SDS011;32811;52.382;5.270;2023-05-14T04:20:14;12.25;;;7.07;;
47053;SDS011;32811;52.382;5.270;2023-05-14T04:22:41;10.52;;;7.38;;
47053;SDS011;32811;52.382;5.270;2023-05-14T04:25:08;9.20;;;7.30;;
47053;SDS011;32811;52.382;5.270;2023-05-14T04:27:34;11.68;;;7.88;;
47053;SDS011;32811;52.382;5.270;2023-05-14T04:30:01;22.25;;;7.55;;
47053;SDS011;32811;52.382;5.270;2023-05-14T04:32:28;9.00;;;7.88;;
47053;SDS011;32811;52.382;5.270;2023-05-14T04:34:55;13.18;;;7.05;;
47053;SDS011;32811;52.382;5.270;2023-05-14T04:37:22;12.68;;;8.13;;
47053;SDS011;32811;52.382;5.270;2023-05-14T04:39:48;8.18;;;7.18;;
47053;SDS011;32811;52.382;5.270;2023-05-14T04:42:15;10.27;;;7.93;;
47053;SDS011;32811;52.382;5.270;2023-05-14T04:44:42;12.75;;;7.50;;
47053;SDS011;32811;52.382;5.270;2023-05-14T04:47:11;9.02;;;7.57;;
47053;SDS011;32811;52.382;5.270;2023-05-14T04:49:41;11.35;;;8.55;;
47053;SDS011;32811;52.382;5.270;2023-05-14T04:52:08;9.13;;;7.70;;
47053;SDS011;32811;52.382;5.270;2023-05-14T04:54:43;11.50;;;6.95;;
47053;SDS011;32811;52.382;5.270;2023-05-14T04:57:19;14.50;;;7.95;;
47053;SDS011;32811;52.382;5.270;2023-05-14T04:59:46;12.02;;;8.23;;
47053;SDS011;32811;52.382;5.270;2023-05-14T05:02:13;14.15;;;7.88;;
47053;SDS011;32811;52.382;5.270;2023-05-14T05:04:39;17.33;;;9.43;;
47053;SDS011;32811;52.382;5.270;2023-05-14T05:07:06;12.30;;;8.50;;
47053;SDS011;32811;52.382;5.270;2023-05-14T05:09:32;13.23;;;8.65;;
47053;SDS011;32811;52.382;5.270;2023-05-14T05:11:59;17.00;;;8.48;;
47053;SDS011;32811;52.382;5.270;2023-05-14T05:14:26;12.88;;;8.43;;
47053;SDS011;32811;52.382;5.270;2023-05-14T05:16:53;12.20;;;8.57;;
47053;SDS011;32811;52.382;5.270;2023-05-14T05:19:20;11.65;;;8.18;;
47053;SDS011;32811;52.382;5.270;2023-05-14T05:22:07;10.13;;;7.50;;
47053;SDS011;32811;52.382;5.270;2023-05-14T05:24:34;11.13;;;8.27;;
47053;SDS011;32811;52.382;5.270;2023-05-14T05:27:03;12.73;;;8.90;;
47053;SDS011;32811;52.382;5.270;2023-05-14T05:29:30;11.25;;;8.75;;
47053;SDS011;32811;52.382;5.270;2023-05-14T05:31:57;16.30;;;8.98;;
47053;SDS011;32811;52.382;5.270;2023-05-14T05:34:27;11.63;;;8.13;;
47053;SDS011;32811;52.382;5.270;2023-05-14T05:36:54;10.13;;;8.05;;
47053;SDS011;32811;52.382;5.270;2023-05-14T05:39:21;14.18;;;8.38;;
47053;SDS011;32811;52.382;5.270;2023-05-14T05:41:50;15.25;;;8.55;;
47053;SDS011;32811;52.382;5.270;2023-05-14T05:44:31;9.48;;;7.78;;
47053;SDS011;32811;52.382;5.270;2023-05-14T05:46:58;15.23;;;8.50;;
47053;SDS011;32811;52.382;5.270;2023-05-14T05:49:25;10.93;;;7.68;;
47053;SDS011;32811;52.382;5.270;2023-05-14T05:51:56;10.15;;;6.88;;
47053;SDS011;32811;52.382;5.270;2023-05-14T05:54:22;9.32;;;6.22;;
47053;SDS011;32811;52.382;5.270;2023-05-14T05:57:00;10.15;;;7.05;;
47053;SDS011;32811;52.382;5.270;2023-05-14T05:59:35;11.18;;;6.97;;
47053;SDS011;32811;52.382;5.270;2023-05-14T06:02:02;12.52;;;7.07;;
47053;SDS011;32811;52.382;5.270;2023-05-14T06:04:32;9.27;;;5.97;;
47053;SDS011;32811;52.382;5.270;2023-05-14T06:07:01;10.35;;;6.05;;
47053;SDS011;32811;52.382;5.270;2023-05-14T06:09:27;7.95;;;6.25;;
47053;SDS011;32811;52.382;5.270;2023-05-14T06:12:01;14.00;;;6.45;;
47053;SDS011;32811;52.382;5.270;2023-05-14T06:14:28;13.00;;;7.47;;
47053;SDS011;32811;52.382;5.270;2023-05-14T06:16:55;7.47;;;5.90;;
47053;SDS011;32811;52.382;5.270;2023-05-14T06:19:21;13.30;;;5.65;;
47053;SDS011;32811;52.382;5.270;2023-05-14T06:21:48;10.45;;;5.68;;
47053;SDS011;32811;52.382;5.270;2023-05-14T06:24:15;9.50;;;5.70;;
47053;SDS011;32811;52.382;5.270;2023-05-14T06:26:41;13.52;;;6.07;;
47053;SDS011;32811;52.382;5.270;2023-05-14T06:29:14;11.60;;;5.88;;
47053;SDS011;32811;52.382;5.270;2023-05-14T06:31:44;11.35;;;5.78;;
47053;SDS011;32811;52.382;5.270;2023-05-14T06:34:14;8.55;;;5.57;;
47053;SDS011;32811;52.382;5.270;2023-05-14T06:36:45;8.50;;;5.25;;
47053;SDS011;32811;52.382;5.270;2023-05-14T06:39:16;9.38;;;5.60;;
47053;SDS011;32811;52.382;5.270;2023-05-14T06:41:46;10.30;;;5.35;;
47053;SDS011;32811;52.382;5.270;2023-05-14T06:44:17;10.15;;;5.20;;
47053;SDS011;32811;52.382;5.270;2023-05-14T06:46:47;9.07;;;5.22;;
47053;SDS011;32811;52.382;5.270;2023-05-14T06:49:18;11.13;;;5.53;;
47053;SDS011;32811;52.382;5.270;2023-05-14T06:51:49;7.40;;;5.13;;
47053;SDS011;32811;52.382;5.270;2023-05-14T06:54:15;8.15;;;4.15;;
47053;SDS011;32811;52.382;5.270;2023-05-14T06:56:46;7.85;;;4.95;;
47053;SDS011;32811;52.382;5.270;2023-05-14T06:59:13;5.35;;;4.15;;
47053;SDS011;32811;52.382;5.270;2023-05-14T07:01:40;7.60;;;4.15;;
47053;SDS011;32811;52.382;5.270;2023-05-14T07:04:09;10.93;;;5.18;;
47053;SDS011;32811;52.382;5.270;2023-05-14T07:06:35;7.80;;;4.47;;
47053;SDS011;32811;52.382;5.270;2023-05-14T07:09:08;10.48;;;4.13;;
47053;SDS011;32811;52.382;5.270;2023-05-14T07:11:35;12.20;;;4.15;;
47053;SDS011;32811;52.382;5.270;2023-05-14T07:14:07;11.00;;;4.40;;
47053;SDS011;32811;52.382;5.270;2023-05-14T07:16:34;10.90;;;4.75;;
47053;SDS011;32811;52.382;5.270;2023-05-14T07:19:01;12.00;;;5.35;;
47053;SDS011;32811;52.382;5.270;2023-05-14T07:21:28;16.38;;;5.40;;
47053;SDS011;32811;52.382;5.270;2023-05-14T07:23:54;13.50;;;5.47;;
47053;SDS011;32811;52.382;5.270;2023-05-14T07:26:21;7.75;;;3.70;;
47053;SDS011;32811;52.382;5.270;2023-05-14T07:28:49;9.65;;;4.68;;
47053;SDS011;32811;52.382;5.270;2023-05-14T07:31:16;8.50;;;3.70;;
47053;SDS011;32811;52.382;5.270;2023-05-14T07:33:42;13.25;;;4.00;;
47053;SDS011;32811;52.382;5.270;2023-05-14T07:36:09;9.43;;;3.55;;
47053;SDS011;32811;52.382;5.270;2023-05-14T07:38:36;8.88;;;3.03;;
47053;SDS011;32811;52.382;5.270;2023-05-14T07:41:03;12.25;;;4.18;;
47053;SDS011;32811;52.382;5.270;2023-05-14T07:43:29;9.98;;;4.30;;
47053;SDS011;32811;52.382;5.270;2023-05-14T07:45:56;12.60;;;3.33;;
47053;SDS011;32811;52.382;5.270;2023-05-14T07:48:23;12.50;;;4.55;;
47053;SDS011;32811;52.382;5.270;2023-05-14T07:50:50;9.15;;;3.50;;
47053;SDS011;32811;52.382;5.270;2023-05-14T07:53:17;11.38;;;3.63;;
47053;SDS011;32811;52.382;5.270;2023-05-14T07:55:44;11.32;;;3.13;;
47053;SDS011;32811;52.382;5.270;2023-05-14T07:58:13;11.23;;;3.97;;
47053;SDS011;32811;52.382;5.270;2023-05-14T08:00:40;9.32;;;2.83;;
47053;SDS011;32811;52.382;5.270;2023-05-14T08:03:06;9.05;;;2.72;;
47053;SDS011;32811;52.382;5.270;2023-05-14T08:05:33;10.73;;;2.95;;
47053;SDS011;32811;52.382;5.270;2023-05-14T08:07:59;13.02;;;2.80;;
47053;SDS011;32811;52.382;5.270;2023-05-14T08:10:26;8.30;;;2.95;;
47053;SDS011;32811;52.382;5.270;2023-05-14T08:12:54;10.40;;;3.35;;
47053;SDS011;32811;52.382;5.270;2023-05-14T08:19:50;7.22;;;2.85;;
47053;SDS011;32811;52.382;5.270;2023-05-14T08:23:31;8.73;;;2.45;;
47053;SDS011;32811;52.382;5.270;2023-05-14T08:26:44;6.95;;;2.05;;
47053;SDS011;32811;52.382;5.270;2023-05-14T08:57:16;9.75;;;3.30;;
47053;SDS011;32811;52.382;5.270;2023-05-14T08:59:44;11.63;;;2.90;;
47053;SDS011;32811;52.382;5.270;2023-05-14T09:02:10;9.00;;;2.55;;
47053;SDS011;32811;52.382;5.270;2023-05-14T09:04:40;9.65;;;2.25;;
47053;SDS011;32811;52.382;5.270;2023-05-14T09:07:07;9.23;;;2.78;;
47053;SDS011;32811;52.382;5.270;2023-05-14T09:09:34;11.38;;;2.40;;
47053;SDS011;32811;52.382;5.270;2023-05-14T09:12:01;9.23;;;2.78;;
47053;SDS011;32811;52.382;5.270;2023-05-14T09:14:28;8.85;;;2.05;;
47053;SDS011;32811;52.382;5.270;2023-05-14T09:16:55;15.15;;;3.35;;
47053;SDS011;32811;52.382;5.270;2023-05-14T09:19:22;11.00;;;2.70;;
47053;SDS011;32811;52.382;5.270;2023-05-14T09:21:49;11.52;;;1.95;;
47053;SDS011;32811;52.382;5.270;2023-05-14T09:24:19;10.30;;;3.03;;
47053;SDS011;32811;52.382;5.270;2023-05-14T09:26:57;14.07;;;2.55;;
47053;SDS011;32811;52.382;5.270;2023-05-14T09:29:24;5.13;;;1.63;;
47053;SDS011;32811;52.382;5.270;2023-05-14T09:31:51;8.38;;;2.30;;
47053;SDS011;32811;52.382;5.270;2023-05-14T09:34:27;4.80;;;2.10;;
47053;SDS011;32811;52.382;5.270;2023-05-14T09:36:56;8.80;;;2.72;;
47053;SDS011;32811;52.382;5.270;2023-05-14T09:39:25;7.55;;;2.40;;
47053;SDS011;32811;52.382;5.270;2023-05-14T09:41:55;9.68;;;2.42;;
47053;SDS011;32811;52.382;5.270;2023-05-14T09:44:22;8.43;;;3.63;;
47053;SDS011;32811;52.382;5.270;2023-05-14T09:47:00;7.85;;;1.52;;
47053;SDS011;32811;52.382;5.270;2023-05-14T09:49:27;11.30;;;2.63;;
47053;SDS011;32811;52.382;5.270;2023-05-14T09:51:53;7.22;;;1.92;;
47053;SDS011;32811;52.382;5.270;2023-05-14T09:54:25;11.60;;;2.05;;
47053;SDS011;32811;52.382;5.270;2023-05-14T09:56:52;12.98;;;1.90;;
47053;SDS011;32811;52.382;5.270;2023-05-14T09:59:21;7.80;;;1.55;;
47053;SDS011;32811;52.382;5.270;2023-05-14T10:01:48;9.13;;;2.53;;
47053;SDS011;32811;52.382;5.270;2023-05-14T10:04:18;4.28;;;1.75;;
47053;SDS011;32811;52.382;5.270;2023-05-14T10:06:45;12.63;;;2.90;;
47053;SDS011;32811;52.382;5.270;2023-05-14T10:09:21;8.35;;;1.92;;
47053;SDS011;32811;52.382;5.270;2023-05-14T10:11:56;5.05;;;1.67;;
47053;SDS011;32811;52.382;5.270;2023-05-14T10:14:40;7.47;;;1.90;;
47053;SDS011;32811;52.382;5.270;2023-05-14T10:17:11;7.45;;;2.15;;
47053;SDS011;32811;52.382;5.270;2023-05-14T10:19:51;8.15;;;2.10;;
47053;SDS011;32811;52.382;5.270;2023-05-14T10:22:22;6.65;;;2.15;;
47053;SDS011;32811;52.382;5.270;2023-05-14T10:25:10;5.97;;;2.08;;
47053;SDS011;32811;52.382;5.270;2023-05-14T10:27:37;10.23;;;2.10;;
47053;SDS011;32811;52.382;5.270;2023-05-14T10:30:10;9.32;;;2.63;;
47053;SDS011;32811;52.382;5.270;2023-05-14T10:35:33;8.32;;;3.03;;
47053;SDS011;32811;52.382;5.270;2023-05-14T10:38:29;6.50;;;2.20;;
47053;SDS011;32811;52.382;5.270;2023-05-14T10:41:03;5.10;;;2.15;;
47053;SDS011;32811;52.382;5.270;2023-05-14T10:43:37;7.53;;;2.10;;
47053;SDS011;32811;52.382;5.270;2023-05-14T10:46:12;7.22;;;2.40;;
47053;SDS011;32811;52.382;5.270;2023-05-14T10:48:40;9.00;;;2.03;;
47053;SDS011;32811;52.382;5.270;2023-05-14T10:53:42;9.20;;;2.33;;
47053;SDS011;32811;52.382;5.270;2023-05-14T10:56:10;6.85;;;2.50;;
47053;SDS011;32811;52.382;5.270;2023-05-14T10:58:40;5.85;;;2.42;;
47053;SDS011;32811;52.382;5.270;2023-05-14T11:01:11;7.00;;;2.33;;
47053;SDS011;32811;52.382;5.270;2023-05-14T11:03:40;7.80;;;2.97;;
47053;SDS011;32811;52.382;5.270;2023-05-14T11:06:40;9.63;;;3.22;;
47053;SDS011;32811;52.382;5.270;2023-05-14T11:09:11;9.68;;;2.90;;
47053;SDS011;32811;52.382;5.270;2023-05-14T11:14:40;9.38;;;2.80;;
47053;SDS011;32811;52.382;5.270;2023-05-14T11:17:20;8.10;;;3.25;;
47053;SDS011;32811;52.382;5.270;2023-05-14T11:19:50;6.78;;;2.78;;
47053;SDS011;32811;52.382;5.270;2023-05-14T11:22:17;8.02;;;2.97;;
47053;SDS011;32811;52.382;5.270;2023-05-14T11:24:56;11.57;;;3.47;;
47053;SDS011;32811;52.382;5.270;2023-05-14T11:27:26;6.70;;;2.47;;
47053;SDS011;32811;52.382;5.270;2023-05-14T11:30:01;11.02;;;3.67;;
47053;SDS011;32811;52.382;5.270;2023-05-14T11:32:38;13.00;;;5.07;;
47053;SDS011;32811;52.382;5.270;2023-05-14T11:35:28;7.75;;;3.33;;
47053;SDS011;32811;52.382;5.270;2023-05-14T11:37:58;11.70;;;3.70;;
47053;SDS011;32811;52.382;5.270;2023-05-14T11:40:54;8.52;;;3.50;;
47053;SDS011;32811;52.382;5.270;2023-05-14T11:43:46;6.78;;;3.08;;
47053;SDS011;32811;52.382;5.270;2023-05-14T11:46:27;8.82;;;3.00;;
47053;SDS011;32811;52.382;5.270;2023-05-14T11:49:23;9.55;;;3.85;;
47053;SDS011;32811;52.382;5.270;2023-05-14T11:51:58;8.52;;;3.53;;
47053;SDS011;32811;52.382;5.270;2023-05-14T11:54:29;9.35;;;3.53;;
47053;SDS011;32811;52.382;5.270;2023-05-14T11:56:58;9.35;;;3.28;;
47053;SDS011;32811;52.382;5.270;2023-05-14T11:59:27;9.60;;;3.53;;
47053;SDS011;32811;52.382;5.270;2023-05-14T12:02:00;8.27;;;3.60;;
47053;SDS011;32811;52.382;5.270;2023-05-14T12:04:51;13.15;;;4.05;;
47053;SDS011;32811;52.382;5.270;2023-05-14T12:07:35;11.30;;;3.50;;
47053;SDS011;32811;52.382;5.270;2023-05-14T12:10:13;9.27;;;3.47;;
47053;SDS011;32811;52.382;5.270;2023-05-14T12:12:44;14.13;;;4.10;;
47053;SDS011;32811;52.382;5.270;2023-05-14T12:15:16;13.32;;;3.97;;
47053;SDS011;32811;52.382;5.270;2023-05-14T12:21:03;7.70;;;3.13;;
47053;SDS011;32811;52.382;5.270;2023-05-14T12:24:02;9.50;;;3.95;;
47053;SDS011;32811;52.382;5.270;2023-05-14T12:27:01;11.52;;;3.67;;
47053;SDS011;32811;52.382;5.270;2023-05-14T12:30:08;10.02;;;3.75;;
47053;SDS011;32811;52.382;5.270;2023-05-14T12:32:49;12.25;;;4.13;;
47053;SDS011;32811;52.382;5.270;2023-05-14T12:35:31;10.38;;;3.60;;
47053;SDS011;32811;52.382;5.270;2023-05-14T12:42:59;11.68;;;3.13;;
47053;SDS011;32811;52.382;5.270;2023-05-14T12:46:00;9.00;;;3.00;;
47053;SDS011;32811;52.382;5.270;2023-05-14T12:55:24;8.27;;;2.80;;
47053;SDS011;32811;52.382;5.270;2023-05-14T12:58:26;9.02;;;3.45;;
47053;SDS011;32811;52.382;5.270;2023-05-14T13:00:58;10.07;;;4.25;;
47053;SDS011;32811;52.382;5.270;2023-05-14T13:03:50;9.93;;;3.05;;
47053;SDS011;32811;52.382;5.270;2023-05-14T13:06:42;10.32;;;3.70;;
47053;SDS011;32811;52.382;5.270;2023-05-14T13:09:34;14.00;;;3.22;;
47053;SDS011;32811;52.382;5.270;2023-05-14T13:12:31;10.27;;;2.97;;
47053;SDS011;32811;52.382;5.270;2023-05-14T13:18:12;7.78;;;3.10;;
47053;SDS011;32811;52.382;5.270;2023-05-14T13:21:41;8.35;;;3.50;;
47053;SDS011;32811;52.382;5.270;2023-05-14T13:24:31;11.77;;;3.70;;
47053;SDS011;32811;52.382;5.270;2023-05-14T13:43:15;10.23;;;4.13;;
47053;SDS011;32811;52.382;5.270;2023-05-14T13:53:23;9.63;;;4.32;;
47053;SDS011;32811;52.382;5.270;2023-05-14T14:01:02;9.48;;;3.97;;
47053;SDS011;32811;52.382;5.270;2023-05-14T14:03:59;8.10;;;3.55;;
47053;SDS011;32811;52.382;5.270;2023-05-14T14:18:17;8.50;;;4.00;;
47053;SDS011;32811;52.382;5.270;2023-05-14T14:21:09;14.60;;;4.30;;
47053;SDS011;32811;52.382;5.270;2023-05-14T14:24:03;11.90;;;4.05;;
47053;SDS011;32811;52.382;5.270;2023-05-14T14:31:21;7.53;;;3.85;;
47053;SDS011;32811;52.382;5.270;2023-05-14T14:41:37;4.80;;;3.30;;
47053;SDS011;32811;52.382;5.270;2023-05-14T14:44:06;9.68;;;3.00;;
47053;SDS011;32811;52.382;5.270;2023-05-14T14:46:45;7.75;;;3.88;;
47053;SDS011;32811;52.382;5.270;2023-05-14T14:58:02;8.80;;;4.47;;
47053;SDS011;32811;52.382;5.270;2023-05-14T15:12:08;8.65;;;2.83;;
47053;SDS011;32811;52.382;5.270;2023-05-14T15:14:36;5.50;;;2.63;;
47053;SDS011;32811;52.382;5.270;2023-05-14T15:17:02;7.85;;;2.63;;
47053;SDS011;32811;52.382;5.270;2023-05-14T15:19:29;8.50;;;2.50;;
47053;SDS011;32811;52.382;5.270;2023-05-14T15:21:57;10.68;;;3.03;;
47053;SDS011;32811;52.382;5.270;2023-05-14T15:24:24;5.72;;;3.30;;
47053;SDS011;32811;52.382;5.270;2023-05-14T15:26:51;12.52;;;5.75;;
47053;SDS011;32811;52.382;5.270;2023-05-14T15:29:19;10.35;;;5.28;;
47053;SDS011;32811;52.382;5.270;2023-05-14T15:31:45;29.67;;;15.70;;
47053;SDS011;32811;52.382;5.270;2023-05-14T15:34:12;6.93;;;4.18;;
47053;SDS011;32811;52.382;5.270;2023-05-14T15:36:39;6.60;;;3.53;;
47053;SDS011;32811;52.382;5.270;2023-05-14T15:39:05;14.07;;;5.57;;
47053;SDS011;32811;52.382;5.270;2023-05-14T15:41:35;10.40;;;4.57;;
47053;SDS011;32811;52.382;5.270;2023-05-14T15:44:02;12.35;;;6.53;;
47053;SDS011;32811;52.382;5.270;2023-05-14T15:46:29;11.07;;;4.35;;
47053;SDS011;32811;52.382;5.270;2023-05-14T15:48:56;9.30;;;3.33;;
47053;SDS011;32811;52.382;5.270;2023-05-14T15:51:23;7.63;;;3.38;;
47053;SDS011;32811;52.382;5.270;2023-05-14T15:53:51;7.70;;;2.83;;
47053;SDS011;32811;52.382;5.270;2023-05-14T15:56:18;7.10;;;4.22;;
47053;SDS011;32811;52.382;5.270;2023-05-14T15:58:46;16.83;;;5.90;;
47053;SDS011;32811;52.382;5.270;2023-05-14T16:01:13;10.20;;;4.63;;
47053;SDS011;32811;52.382;5.270;2023-05-14T16:03:40;8.02;;;3.70;;
47053;SDS011;32811;52.382;5.270;2023-05-14T16:06:06;8.95;;;4.65;;
47053;SDS011;32811;52.382;5.270;2023-05-14T16:08:33;10.75;;;4.05;;
47053;SDS011;32811;52.382;5.270;2023-05-14T16:11:00;11.07;;;4.55;;
47053;SDS011;32811;52.382;5.270;2023-05-14T16:13:26;12.13;;;3.95;;
47053;SDS011;32811;52.382;5.270;2023-05-14T16:15:53;13.10;;;5.15;;
47053;SDS011;32811;52.382;5.270;2023-05-14T16:18:20;11.65;;;4.70;;
47053;SDS011;32811;52.382;5.270;2023-05-14T16:20:47;14.35;;;4.90;;
47053;SDS011;32811;52.382;5.270;2023-05-14T16:23:14;11.68;;;3.63;;
47053;SDS011;32811;52.382;5.270;2023-05-14T16:25:40;11.60;;;3.83;;
47053;SDS011;32811;52.382;5.270;2023-05-14T16:28:07;10.13;;;4.35;;
47053;SDS011;32811;52.382;5.270;2023-05-14T16:30:34;10.77;;;4.10;;
47053;SDS011;32811;52.382;5.270;2023-05-14T16:33:00;8.75;;;3.65;;
47053;SDS011;32811;52.382;5.270;2023-05-14T16:35:27;9.77;;;3.47;;
47053;SDS011;32811;52.382;5.270;2023-05-14T16:37:54;9.75;;;4.22;;
47053;SDS011;32811;52.382;5.270;2023-05-14T16:40:21;10.00;;;3.42;;
47053;SDS011;32811;52.382;5.270;2023-05-14T16:42:49;8.93;;;3.95;;
47053;SDS011;32811;52.382;5.270;2023-05-14T16:45:16;5.95;;;3.15;;
47053;SDS011;32811;52.382;5.270;2023-05-14T16:47:43;11.95;;;4.78;;
47053;SDS011;32811;52.382;5.270;2023-05-14T16:50:09;10.00;;;4.95;;
47053;SDS011;32811;52.382;5.270;2023-05-14T16:52:36;5.93;;;3.90;;
47053;SDS011;32811;52.382;5.270;2023-05-14T16:55:03;9.00;;;4.13;;
47053;SDS011;32811;52.382;5.270;2023-05-14T16:57:30;12.38;;;5.18;;
47053;SDS011;32811;52.382;5.270;2023-05-14T16:59:57;9.50;;;4.72;;
47053;SDS011;32811;52.382;5.270;2023-05-14T17:02:23;8.88;;;3.83;;
47053;SDS011;32811;52.382;5.270;2023-05-14T17:04:50;5.22;;;3.60;;
47053;SDS011;32811;52.382;5.270;2023-05-14T17:07:19;11.15;;;3.42;;
47053;SDS011;32811;52.382;5.270;2023-05-14T17:09:45;9.25;;;4.03;;
47053;SDS011;32811;52.382;5.270;2023-05-14T17:12:12;9.00;;;3.47;;
47053;SDS011;32811;52.382;5.270;2023-05-14T17:14:39;7.63;;;4.22;;
47053;SDS011;32811;52.382;5.270;2023-05-14T17:17:06;11.88;;;3.90;;
47053;SDS011;32811;52.382;5.270;2023-05-14T17:19:32;6.38;;;3.78;;
47053;SDS011;32811;52.382;5.270;2023-05-14T17:21:59;9.60;;;3.63;;